Terminal Aerodrome Forecast
Issued by NWS Knoxville/Tri Cities, TN

Home | Current Version | Previous Version | Text Only | Print | Product List | Glossary On
Versions: 1 2 3 4 5 6 7 8 9 10 11 12 13 14 15 16 17 18 19 20 21 22 23 24 25 26
000
FTUS44 KMRX 022327
TAFTRI
TAF
KTRI 022327Z 0300/0324 24005KT P6SM VCTS SCT045CB BKN250
      TEMPO 0301/0303 4SM TSRA BR BKN025CB
     FM030600 VRB02KT 3SM BR SCT005 BKN150
     FM030900 VRB02KT 1SM BR SCT002 BKN010
     FM031330 VRB04KT P6SM SCT045 BKN250=

USA.gov is the U.S. government's official web portal to all federal, state and local government web resources and services.